sensor_id;sensor_type;location;lat;lon;timestamp;temperature;humidity
70928;SHT31;58587;53.034;18.576;2022-12-20T00:00:57;0.82;97.10
70928;SHT31;58587;53.034;18.576;2022-12-20T00:03:23;0.83;97.10
70928;SHT31;58587;53.034;18.576;2022-12-20T00:05:48;0.80;97.16
70928;SHT31;58587;53.034;18.576;2022-12-20T00:08:14;0.83;97.13
70928;SHT31;58587;53.034;18.576;2022-12-20T00:10:43;0.85;97.10
70928;SHT31;58587;53.034;18.576;2022-12-20T11:19:13;3.31;85.56
70928;SHT31;58587;53.034;18.576;2022-12-20T11:22:05;3.32;85.44
70928;SHT31;58587;53.034;18.576;2022-12-20T11:24:35;3.34;85.61
70928;SHT31;58587;53.034;18.576;2022-12-20T11:30:02;3.35;85.53
70928;SHT31;58587;53.034;18.576;2022-12-20T11:35:48;3.32;85.61
70928;SHT31;58587;53.034;18.576;2022-12-20T11:41:34;3.36;85.30
70928;SHT31;58587;53.034;18.576;2022-12-20T11:44:24;3.32;85.48
70928;SHT31;58587;53.034;18.576;2022-12-20T11:47:32;3.36;85.69
70928;SHT31;58587;53.034;18.576;2022-12-20T11:50:06;3.36;85.12
70928;SHT31;58587;53.034;18.576;2022-12-20T11:52:51;3.40;85.13
70928;SHT31;58587;53.034;18.576;2022-12-20T11:55:26;3.38;85.48
70928;SHT31;58587;53.034;18.576;2022-12-20T11:58:25;3.42;85.17
70928;SHT31;58587;53.034;18.576;2022-12-20T12:00:56;3.43;85.09
70928;SHT31;58587;53.034;18.576;2022-12-20T12:03:31;3.48;84.60
70928;SHT31;58587;53.034;18.576;2022-12-20T12:06:15;3.45;85.35
70928;SHT31;58587;53.034;18.576;2022-12-20T12:09:13;3.48;84.98
70928;SHT31;58587;53.034;18.576;2022-12-20T12:11:46;3.43;85.47
70928;SHT31;58587;53.034;18.576;2022-12-20T12:17:07;3.42;85.83
70928;SHT31;58587;53.034;18.576;2022-12-20T12:19:35;3.45;85.56
70928;SHT31;58587;53.034;18.576;2022-12-20T12:22:10;3.40;86.27
70928;SHT31;58587;53.034;18.576;2022-12-20T12:24:41;3.42;86.44
70928;SHT31;58587;53.034;18.576;2022-12-20T12:27:25;3.43;86.61
70928;SHT31;58587;53.034;18.576;2022-12-20T12:29:53;3.39;86.64
70928;SHT31;58587;53.034;18.576;2022-12-20T12:32:33;3.38;87.16
70928;SHT31;58587;53.034;18.576;2022-12-20T12:38:21;3.35;88.11
70928;SHT31;58587;53.034;18.576;2022-12-20T12:41:26;3.31;88.35
70928;SHT31;58587;53.034;18.576;2022-12-20T12:43:56;3.28;88.56
70928;SHT31;58587;53.034;18.576;2022-12-20T12:46:28;3.27;88.50
70928;SHT31;58587;53.034;18.576;2022-12-20T12:49:01;3.29;88.92
70928;SHT31;58587;53.034;18.576;2022-12-20T12:51:31;3.28;88.69
70928;SHT31;58587;53.034;18.576;2022-12-20T12:54:17;3.28;88.71
70928;SHT31;58587;53.034;18.576;2022-12-20T12:56:47;3.25;88.76
70928;SHT31;58587;53.034;18.576;2022-12-20T13:09:57;3.27;88.46
70928;SHT31;58587;53.034;18.576;2022-12-20T13:18:19;3.25;88.27
70928;SHT31;58587;53.034;18.576;2022-12-20T13:21:27;3.28;88.34
70928;SHT31;58587;53.034;18.576;2022-12-20T13:27:01;3.25;88.85
70928;SHT31;58587;53.034;18.576;2022-12-20T13:29:33;3.25;88.28
70928;SHT31;58587;53.034;18.576;2022-12-20T13:32:02;3.27;88.62
70928;SHT31;58587;53.034;18.576;2022-12-20T13:34:53;3.24;88.85
70928;SHT31;58587;53.034;18.576;2022-12-20T13:40:43;3.21;88.70
70928;SHT31;58587;53.034;18.576;2022-12-20T13:45:48;3.19;88.69
70928;SHT31;58587;53.034;18.576;2022-12-20T13:48:29;3.19;88.74
70928;SHT31;58587;53.034;18.576;2022-12-20T13:50:57;3.21;88.76
70928;SHT31;58587;53.034;18.576;2022-12-20T13:53:25;3.17;88.66
70928;SHT31;58587;53.034;18.576;2022-12-20T13:55:54;3.19;88.55
70928;SHT31;58587;53.034;18.576;2022-12-20T13:58:26;3.18;88.57
70928;SHT31;58587;53.034;18.576;2022-12-20T14:00:53;3.18;88.60
70928;SHT31;58587;53.034;18.576;2022-12-20T14:03:24;3.19;88.76
70928;SHT31;58587;53.034;18.576;2022-12-20T14:06:00;3.18;88.72
70928;SHT31;58587;53.034;18.576;2022-12-20T14:08:39;3.21;88.50
70928;SHT31;58587;53.034;18.576;2022-12-20T14:13:51;3.21;88.39
70928;SHT31;58587;53.034;18.576;2022-12-20T14:16:18;3.24;88.35
70928;SHT31;58587;53.034;18.576;2022-12-20T14:21:22;3.19;88.39
70928;SHT31;58587;53.034;18.576;2022-12-20T14:23:51;3.18;88.32
70928;SHT31;58587;53.034;18.576;2022-12-20T14:26:26;3.22;88.62
70928;SHT31;58587;53.034;18.576;2022-12-20T14:28:53;3.18;88.58
70928;SHT31;58587;53.034;18.576;2022-12-20T14:36:44;3.17;88.55
70928;SHT31;58587;53.034;18.576;2022-12-20T14:39:29;3.14;88.78
70928;SHT31;58587;53.034;18.576;2022-12-20T14:41:58;3.17;88.63
70928;SHT31;58587;53.034;18.576;2022-12-20T14:44:25;3.09;88.66
70928;SHT31;58587;53.034;18.576;2022-12-20T14:46:53;3.09;88.72
70928;SHT31;58587;53.034;18.576;2022-12-20T14:49:24;3.07;88.72
70928;SHT31;58587;53.034;18.576;2022-12-20T14:51:51;3.05;88.61
70928;SHT31;58587;53.034;18.576;2022-12-20T14:54:22;3.08;88.28
70928;SHT31;58587;53.034;18.576;2022-12-20T14:56:50;3.08;88.28
70928;SHT31;58587;53.034;18.576;2022-12-20T14:59:27;3.07;88.28
70928;SHT31;58587;53.034;18.576;2022-12-20T15:01:53;3.04;88.39
70928;SHT31;58587;53.034;18.576;2022-12-20T15:06:53;3.01;88.47
70928;SHT31;58587;53.034;18.576;2022-12-20T15:09:18;2.98;88.43
70928;SHT31;58587;53.034;18.576;2022-12-20T15:11:45;3.00;88.62
70928;SHT31;58587;53.034;18.576;2022-12-20T15:16:58;3.01;88.60
70928;SHT31;58587;53.034;18.576;2022-12-20T15:19:24;2.98;88.58
70928;SHT31;58587;53.034;18.576;2022-12-20T15:21:49;2.98;88.71
70928;SHT31;58587;53.034;18.576;2022-12-20T15:24:17;3.00;88.56
70928;SHT31;58587;53.034;18.576;2022-12-20T15:26:46;3.00;88.69
70928;SHT31;58587;53.034;18.576;2022-12-20T15:29:30;3.00;88.71
70928;SHT31;58587;53.034;18.576;2022-12-20T15:32:04;2.98;88.60
70928;SHT31;58587;53.034;18.576;2022-12-20T15:34:36;2.97;88.63
70928;SHT31;58587;53.034;18.576;2022-12-20T15:37:02;2.98;88.75
70928;SHT31;58587;53.034;18.576;2022-12-20T15:39:30;2.98;88.81
70928;SHT31;58587;53.034;18.576;2022-12-20T15:41:59;2.98;88.84
70928;SHT31;58587;53.034;18.576;2022-12-20T15:44:26;2.97;88.83
70928;SHT31;58587;53.034;18.576;2022-12-20T15:46:53;2.97;88.96
70928;SHT31;58587;53.034;18.576;2022-12-20T15:49:24;2.95;88.92
70928;SHT31;58587;53.034;18.576;2022-12-20T15:51:51;2.97;88.82
70928;SHT31;58587;53.034;18.576;2022-12-20T15:54:31;2.95;88.93
70928;SHT31;58587;53.034;18.576;2022-12-20T15:56:59;2.94;89.03
70928;SHT31;58587;53.034;18.576;2022-12-20T15:59:27;2.94;89.02
70928;SHT31;58587;53.034;18.576;2022-12-20T16:01:52;2.93;89.16
70928;SHT31;58587;53.034;18.576;2022-12-20T16:04:19;2.93;89.02
70928;SHT31;58587;53.034;18.576;2022-12-20T16:06:47;2.91;89.12
70928;SHT31;58587;53.034;18.576;2022-12-20T16:09:13;2.91;89.16
70928;SHT31;58587;53.034;18.576;2022-12-20T16:11:38;2.91;89.21
70928;SHT31;58587;53.034;18.576;2022-12-20T16:14:05;2.90;89.27
70928;SHT31;58587;53.034;18.576;2022-12-20T16:16:33;2.88;89.18
70928;SHT31;58587;53.034;18.576;2022-12-20T16:18:59;2.88;89.22
70928;SHT31;58587;53.034;18.576;2022-12-20T16:21:28;2.87;89.21
70928;SHT31;58587;53.034;18.576;2022-12-20T16:23:55;2.87;89.16
70928;SHT31;58587;53.034;18.576;2022-12-20T16:26:22;2.88;89.27
70928;SHT31;58587;53.034;18.576;2022-12-20T16:28:48;2.87;89.07
70928;SHT31;58587;53.034;18.576;2022-12-20T16:31:30;2.85;89.05
70928;SHT31;58587;53.034;18.576;2022-12-20T16:33:57;2.85;89.17
70928;SHT31;58587;53.034;18.576;2022-12-20T16:36:23;2.84;89.21
70928;SHT31;58587;53.034;18.576;2022-12-20T16:38:49;2.85;89.01
70928;SHT31;58587;53.034;18.576;2022-12-20T16:43:45;2.83;89.10
70928;SHT31;58587;53.034;18.576;2022-12-20T16:46:12;2.80;89.19
70928;SHT31;58587;53.034;18.576;2022-12-20T16:48:39;2.81;89.26
70928;SHT31;58587;53.034;18.576;2022-12-20T16:51:32;2.80;89.23
70928;SHT31;58587;53.034;18.576;2022-12-20T16:54:03;2.81;89.31
70928;SHT31;58587;53.034;18.576;2022-12-20T16:56:29;2.80;89.28
70928;SHT31;58587;53.034;18.576;2022-12-20T16:58:55;2.76;89.33
70928;SHT31;58587;53.034;18.576;2022-12-20T17:01:24;2.80;89.41
70928;SHT31;58587;53.034;18.576;2022-12-20T17:03:50;2.77;89.48
70928;SHT31;58587;53.034;18.576;2022-12-20T17:06:17;2.77;89.65
70928;SHT31;58587;53.034;18.576;2022-12-20T17:08:43;2.77;89.82
70928;SHT31;58587;53.034;18.576;2022-12-20T17:11:17;2.74;89.74
70928;SHT31;58587;53.034;18.576;2022-12-20T17:13:44;2.76;89.67
70928;SHT31;58587;53.034;18.576;2022-12-20T17:16:11;2.76;89.55
70928;SHT31;58587;53.034;18.576;2022-12-20T17:18:44;2.73;89.66
70928;SHT31;58587;53.034;18.576;2022-12-20T17:21:36;2.72;89.55
70928;SHT31;58587;53.034;18.576;2022-12-20T17:24:04;2.74;89.55
70928;SHT31;58587;53.034;18.576;2022-12-20T17:26:33;2.74;89.37
70928;SHT31;58587;53.034;18.576;2022-12-20T17:28:59;2.72;89.53
70928;SHT31;58587;53.034;18.576;2022-12-20T17:31:32;2.72;89.31
70928;SHT31;58587;53.034;18.576;2022-12-20T17:34:08;2.74;89.27
70928;SHT31;58587;53.034;18.576;2022-12-20T17:36:39;2.72;89.17
70928;SHT31;58587;53.034;18.576;2022-12-20T17:39:04;2.73;89.10
70928;SHT31;58587;53.034;18.576;2022-12-20T17:41:31;2.72;88.96
70928;SHT31;58587;53.034;18.576;2022-12-20T17:43:59;2.72;88.88
70928;SHT31;58587;53.034;18.576;2022-12-20T17:46:25;2.73;88.96
70928;SHT31;58587;53.034;18.576;2022-12-20T17:48:51;2.70;88.91
70928;SHT31;58587;53.034;18.576;2022-12-20T17:53:43;2.67;89.04
70928;SHT31;58587;53.034;18.576;2022-12-20T17:56:12;2.64;88.94
70928;SHT31;58587;53.034;18.576;2022-12-20T17:58:38;2.65;89.05
70928;SHT31;58587;53.034;18.576;2022-12-20T18:01:03;2.64;88.98
70928;SHT31;58587;53.034;18.576;2022-12-20T18:03:28;2.60;88.92
70928;SHT31;58587;53.034;18.576;2022-12-20T18:05:55;2.61;88.92
70928;SHT31;58587;53.034;18.576;2022-12-20T18:08:20;2.58;88.98
70928;SHT31;58587;53.034;18.576;2022-12-20T18:10:46;2.54;88.98
70928;SHT31;58587;53.034;18.576;2022-12-20T18:13:11;2.57;88.95
70928;SHT31;58587;53.034;18.576;2022-12-20T18:15:37;2.57;88.84
70928;SHT31;58587;53.034;18.576;2022-12-20T18:18:03;2.56;88.96
70928;SHT31;58587;53.034;18.576;2022-12-20T18:20:28;2.54;88.94
70928;SHT31;58587;53.034;18.576;2022-12-20T18:22:53;2.58;88.75
70928;SHT31;58587;53.034;18.576;2022-12-20T18:25:19;2.56;88.60
70928;SHT31;58587;53.034;18.576;2022-12-20T18:27:44;2.56;88.74
70928;SHT31;58587;53.034;18.576;2022-12-20T18:30:10;2.56;88.78
70928;SHT31;58587;53.034;18.576;2022-12-20T18:32:37;2.53;88.87
70928;SHT31;58587;53.034;18.576;2022-12-20T18:35:02;2.52;89.01
70928;SHT31;58587;53.034;18.576;2022-12-20T18:37:28;2.53;88.83
70928;SHT31;58587;53.034;18.576;2022-12-20T18:39:53;2.56;88.73
70928;SHT31;58587;53.034;18.576;2022-12-20T18:42:19;2.56;88.71
70928;SHT31;58587;53.034;18.576;2022-12-20T18:44:44;2.56;88.76
70928;SHT31;58587;53.034;18.576;2022-12-20T18:47:09;2.57;88.48
70928;SHT31;58587;53.034;18.576;2022-12-20T18:49:35;2.61;88.41
70928;SHT31;58587;53.034;18.576;2022-12-20T18:52:01;2.63;88.34
70928;SHT31;58587;53.034;18.576;2022-12-20T18:54:27;2.61;88.24
70928;SHT31;58587;53.034;18.576;2022-12-20T18:56:54;2.60;88.34
70928;SHT31;58587;53.034;18.576;2022-12-20T18:59:20;2.64;87.70
70928;SHT31;58587;53.034;18.576;2022-12-20T19:01:45;2.64;88.03
70928;SHT31;58587;53.034;18.576;2022-12-20T19:04:11;2.64;87.90
70928;SHT31;58587;53.034;18.576;2022-12-20T19:06:36;2.68;87.19
70928;SHT31;58587;53.034;18.576;2022-12-20T19:09:05;2.68;87.47
70928;SHT31;58587;53.034;18.576;2022-12-20T19:11:30;2.72;87.12
70928;SHT31;58587;53.034;18.576;2022-12-20T19:13:56;2.72;87.05
70928;SHT31;58587;53.034;18.576;2022-12-20T19:16:23;2.70;87.27
70928;SHT31;58587;53.034;18.576;2022-12-20T19:18:50;2.73;87.07
70928;SHT31;58587;53.034;18.576;2022-12-20T19:21:24;2.74;86.98
70928;SHT31;58587;53.034;18.576;2022-12-20T19:23:52;2.73;87.00
70928;SHT31;58587;53.034;18.576;2022-12-20T19:26:20;2.76;87.00
70928;SHT31;58587;53.034;18.576;2022-12-20T19:28:46;2.84;86.04
70928;SHT31;58587;53.034;18.576;2022-12-20T19:31:16;2.81;86.17
70928;SHT31;58587;53.034;18.576;2022-12-20T19:33:44;2.81;86.02
70928;SHT31;58587;53.034;18.576;2022-12-20T19:36:12;2.81;86.10
70928;SHT31;58587;53.034;18.576;2022-12-20T19:38:44;2.83;86.01
70928;SHT31;58587;53.034;18.576;2022-12-20T19:41:10;2.83;86.20
70928;SHT31;58587;53.034;18.576;2022-12-20T19:43:36;2.83;86.08
70928;SHT31;58587;53.034;18.576;2022-12-20T19:46:01;2.85;85.60
70928;SHT31;58587;53.034;18.576;2022-12-20T19:48:26;2.84;85.78
70928;SHT31;58587;53.034;18.576;2022-12-20T19:51:03;2.84;85.74
70928;SHT31;58587;53.034;18.576;2022-12-20T19:53:28;2.87;85.50
70928;SHT31;58587;53.034;18.576;2022-12-20T19:55:53;2.87;85.57
70928;SHT31;58587;53.034;18.576;2022-12-20T19:58:19;2.84;86.01
70928;SHT31;58587;53.034;18.576;2022-12-20T20:00:50;2.87;85.44
70928;SHT31;58587;53.034;18.576;2022-12-20T20:03:16;2.87;85.64
70928;SHT31;58587;53.034;18.576;2022-12-20T20:05:41;2.85;85.92
70928;SHT31;58587;53.034;18.576;2022-12-20T20:08:07;2.84;85.56
70928;SHT31;58587;53.034;18.576;2022-12-20T20:10:33;2.83;85.70
70928;SHT31;58587;53.034;18.576;2022-12-20T20:12:58;2.85;85.18
70928;SHT31;58587;53.034;18.576;2022-12-20T20:15:24;2.84;85.41
70928;SHT31;58587;53.034;18.576;2022-12-20T20:17:50;2.85;85.68
70928;SHT31;58587;53.034;18.576;2022-12-20T20:20:15;2.85;85.35
70928;SHT31;58587;53.034;18.576;2022-12-20T20:22:41;2.88;85.43
70928;SHT31;58587;53.034;18.576;2022-12-20T20:25:06;2.87;85.25
70928;SHT31;58587;53.034;18.576;2022-12-20T20:27:32;2.88;84.98
70928;SHT31;58587;53.034;18.576;2022-12-20T20:29:57;2.91;85.15
70928;SHT31;58587;53.034;18.576;2022-12-20T20:32:23;2.85;85.16
70928;SHT31;58587;53.034;18.576;2022-12-20T20:34:48;2.91;85.00
70928;SHT31;58587;53.034;18.576;2022-12-20T20:37:13;2.90;85.24
70928;SHT31;58587;53.034;18.576;2022-12-20T20:39:39;2.90;85.27
70928;SHT31;58587;53.034;18.576;2022-12-20T20:42:05;2.88;85.13
70928;SHT31;58587;53.034;18.576;2022-12-20T20:44:31;2.93;84.98
70928;SHT31;58587;53.034;18.576;2022-12-20T20:46:56;2.94;85.29
70928;SHT31;58587;53.034;18.576;2022-12-20T20:49:21;2.94;84.97
70928;SHT31;58587;53.034;18.576;2022-12-20T20:51:47;2.90;85.04
70928;SHT31;58587;53.034;18.576;2022-12-20T20:54:12;2.93;85.12
70928;SHT31;58587;53.034;18.576;2022-12-20T20:56:37;2.93;85.29
70928;SHT31;58587;53.034;18.576;2022-12-20T20:59:03;2.91;85.18
70928;SHT31;58587;53.034;18.576;2022-12-20T21:01:28;2.91;85.02
70928;SHT31;58587;53.034;18.576;2022-12-20T21:03:55;2.91;85.07
70928;SHT31;58587;53.034;18.576;2022-12-20T21:06:20;2.91;85.27
70928;SHT31;58587;53.034;18.576;2022-12-20T21:08:49;2.93;84.76
70928;SHT31;58587;53.034;18.576;2022-12-20T21:11:15;2.93;85.45
70928;SHT31;58587;53.034;18.576;2022-12-20T21:13:40;2.94;85.45
70928;SHT31;58587;53.034;18.576;2022-12-20T21:16:09;2.94;85.74
70928;SHT31;58587;53.034;18.576;2022-12-20T21:18:35;2.91;86.16
70928;SHT31;58587;53.034;18.576;2022-12-20T21:21:09;2.95;85.73
70928;SHT31;58587;53.034;18.576;2022-12-20T21:23:35;2.94;86.44
70928;SHT31;58587;53.034;18.576;2022-12-20T21:26:00;2.90;86.61
70928;SHT31;58587;53.034;18.576;2022-12-20T21:28:26;2.91;86.55
70928;SHT31;58587;53.034;18.576;2022-12-20T21:30:59;2.88;86.57
70928;SHT31;58587;53.034;18.576;2022-12-20T21:33:25;2.90;87.19
70928;SHT31;58587;53.034;18.576;2022-12-20T21:36:05;2.88;86.78
70928;SHT31;58587;53.034;18.576;2022-12-20T21:38:30;2.90;86.56
70928;SHT31;58587;53.034;18.576;2022-12-20T21:41:05;2.88;87.04
70928;SHT31;58587;53.034;18.576;2022-12-20T21:43:31;2.87;87.04
70928;SHT31;58587;53.034;18.576;2022-12-20T21:45:56;2.90;86.82
70928;SHT31;58587;53.034;18.576;2022-12-20T21:48:22;2.90;87.18
70928;SHT31;58587;53.034;18.576;2022-12-20T21:51:03;2.87;87.34
70928;SHT31;58587;53.034;18.576;2022-12-20T21:53:29;2.88;87.03
70928;SHT31;58587;53.034;18.576;2022-12-20T21:55:56;2.87;86.84
70928;SHT31;58587;53.034;18.576;2022-12-20T21:58:23;2.87;87.31
70928;SHT31;58587;53.034;18.576;2022-12-20T22:00:50;2.84;87.28
70928;SHT31;58587;53.034;18.576;2022-12-20T22:03:15;2.85;87.25
70928;SHT31;58587;53.034;18.576;2022-12-20T22:05:48;2.84;87.09
70928;SHT31;58587;53.034;18.576;2022-12-20T22:08:15;2.85;87.07
70928;SHT31;58587;53.034;18.576;2022-12-20T22:10:41;2.85;86.98
70928;SHT31;58587;53.034;18.576;2022-12-20T22:13:07;2.90;86.60
70928;SHT31;58587;53.034;18.576;2022-12-20T22:15:34;2.88;86.60
70928;SHT31;58587;53.034;18.576;2022-12-20T22:18:00;2.87;87.08
70928;SHT31;58587;53.034;18.576;2022-12-20T22:20:25;2.87;86.97
70928;SHT31;58587;53.034;18.576;2022-12-20T22:22:51;2.85;86.82
70928;SHT31;58587;53.034;18.576;2022-12-20T22:25:16;2.84;87.01
70928;SHT31;58587;53.034;18.576;2022-12-20T22:27:41;2.84;87.18
70928;SHT31;58587;53.034;18.576;2022-12-20T22:30:07;2.84;87.11
70928;SHT31;58587;53.034;18.576;2022-12-20T22:32:33;2.81;87.28
70928;SHT31;58587;53.034;18.576;2022-12-20T22:34:58;2.81;87.37
70928;SHT31;58587;53.034;18.576;2022-12-20T22:37:23;2.80;87.30
70928;SHT31;58587;53.034;18.576;2022-12-20T22:39:48;2.79;87.35
70928;SHT31;58587;53.034;18.576;2022-12-20T22:42:14;2.76;87.43
70928;SHT31;58587;53.034;18.576;2022-12-20T22:44:40;2.73;87.43
70928;SHT31;58587;53.034;18.576;2022-12-20T22:47:06;2.76;87.41
70928;SHT31;58587;53.034;18.576;2022-12-20T22:49:31;2.73;87.46
70928;SHT31;58587;53.034;18.576;2022-12-20T22:51:56;2.72;87.43
70928;SHT31;58587;53.034;18.576;2022-12-20T22:54:22;2.74;87.49
70928;SHT31;58587;53.034;18.576;2022-12-20T22:56:47;2.70;87.47
70928;SHT31;58587;53.034;18.576;2022-12-20T22:59:13;2.67;87.47
70928;SHT31;58587;53.034;18.576;2022-12-20T23:01:38;2.67;87.42
70928;SHT31;58587;53.034;18.576;2022-12-20T23:04:04;2.61;87.55
70928;SHT31;58587;53.034;18.576;2022-12-20T23:06:29;2.57;87.60
70928;SHT31;58587;53.034;18.576;2022-12-20T23:08:54;2.54;87.69
70928;SHT31;58587;53.034;18.576;2022-12-20T23:11:25;2.52;87.76
70928;SHT31;58587;53.034;18.576;2022-12-20T23:14:17;2.50;87.69
70928;SHT31;58587;53.034;18.576;2022-12-20T23:17:02;2.50;87.70
70928;SHT31;58587;53.034;18.576;2022-12-20T23:19:28;2.53;87.75
70928;SHT31;58587;53.034;18.576;2022-12-20T23:22:13;2.47;87.77
70928;SHT31;58587;53.034;18.576;2022-12-20T23:24:57;2.46;87.61
70928;SHT31;58587;53.034;18.576;2022-12-20T23:27:23;2.47;87.63
70928;SHT31;58587;53.034;18.576;2022-12-20T23:29:49;2.44;87.65
70928;SHT31;58587;53.034;18.576;2022-12-20T23:32:14;2.47;87.61
70928;SHT31;58587;53.034;18.576;2022-12-20T23:34:39;2.43;87.70
70928;SHT31;58587;53.034;18.576;2022-12-20T23:37:05;2.43;87.81
70928;SHT31;58587;53.034;18.576;2022-12-20T23:39:30;2.42;87.83
70928;SHT31;58587;53.034;18.576;2022-12-20T23:41:55;2.44;87.46
70928;SHT31;58587;53.034;18.576;2022-12-20T23:44:21;2.44;87.59
70928;SHT31;58587;53.034;18.576;2022-12-20T23:46:46;2.40;87.66
70928;SHT31;58587;53.034;18.576;2022-12-20T23:49:12;2.37;87.39
70928;SHT31;58587;53.034;18.576;2022-12-20T23:51:37;2.37;87.49
70928;SHT31;58587;53.034;18.576;2022-12-20T23:54:03;2.36;87.54
70928;SHT31;58587;53.034;18.576;2022-12-20T23:56:29;2.34;87.57
70928;SHT31;58587;53.034;18.576;2022-12-20T23:58:54;2.32;87.43
